Time;durP1;ratioP1;P1;durP2;ratioP2;P2;SDS_P1;SDS_P2;PMS_P1;PMS_P2;Temp;Humidity;BMP_temperature;BMP_pressure;BME280_temperature;BME280_humidity;BME280_pressure;Samples;Min_cycle;Max_cycle;Signal;HPM_P1;HPM_P2
2023/03/11 00:00:43;;;;;;;5.25;1.85;;;;;;;;;;4978137;28;88402;-70
2023/03/11 00:03:13;;;;;;;16.20;2.78;;;;;;;;;;4992663;28;88069;-69
2023/03/11 00:05:40;;;;;;;9.02;1.75;;;;;;;;;;4997232;28;89525;-70
2023/03/11 00:08:08;;;;;;;5.50;1.55;;;;;;;;;;5003457;28;88035;-69
2023/03/11 00:10:37;;;;;;;4.03;1.35;;;;;;;;;;4979100;28;88798;-70
2023/03/11 00:13:04;;;;;;;10.68;2.70;;;;;;;;;;4983927;28;87739;-69
2023/03/11 00:15:31;;;;;;;20.65;3.30;;;;;;;;;;4998460;28;88238;-70
2023/03/11 00:17:58;;;;;;;9.30;3.13;;;;;;;;;;4990364;28;88094;-70
2023/03/11 00:20:28;;;;;;;12.98;2.55;;;;;;;;;;4978057;28;88846;-70
2023/03/11 00:22:55;;;;;;;10.55;2.55;;;;;;;;;;4996565;28;89680;-70
2023/03/11 00:25:22;;;;;;;8.57;1.60;;;;;;;;;;4984505;28;89054;-70
2023/03/11 00:27:49;;;;;;;11.63;2.00;;;;;;;;;;4986303;28;89110;-70
2023/03/11 00:30:16;;;;;;;7.75;1.63;;;;;;;;;;4984451;28;88988;-70
2023/03/11 00:32:42;;;;;;;3.33;1.35;;;;;;;;;;4988875;28;88448;-70
2023/03/11 00:35:13;;;;;;;6.80;1.63;;;;;;;;;;4985250;28;89503;-70
2023/03/11 00:37:39;;;;;;;7.10;1.55;;;;;;;;;;4987525;28;88898;-70
2023/03/11 00:40:07;;;;;;;10.70;1.42;;;;;;;;;;4978049;28;88302;-70
2023/03/11 00:42:34;;;;;;;8.05;1.70;;;;;;;;;;4980669;28;88953;-70
2023/03/11 00:45:00;;;;;;;10.00;1.50;;;;;;;;;;4983929;28;89611;-70
2023/03/11 00:47:26;;;;;;;7.07;1.58;;;;;;;;;;4992500;28;88121;-70
2023/03/11 00:49:53;;;;;;;11.43;1.70;;;;;;;;;;4980362;28;88404;-70
2023/03/11 00:52:19;;;;;;;14.48;1.70;;;;;;;;;;4983324;28;88305;-70
2023/03/11 00:54:45;;;;;;;11.43;1.35;;;;;;;;;;4993169;28;90074;-70
2023/03/11 00:57:12;;;;;;;10.35;1.48;;;;;;;;;;4992623;28;88751;-69
2023/03/11 00:59:38;;;;;;;17.45;2.40;;;;;;;;;;4988627;28;88115;-69
2023/03/11 01:02:04;;;;;;;9.40;1.50;;;;;;;;;;4990218;28;88798;-69
2023/03/11 01:04:31;;;;;;;9.98;1.52;;;;;;;;;;4992148;28;89872;-70
2023/03/11 01:06:57;;;;;;;6.20;1.10;;;;;;;;;;4985294;28;88076;-70
2023/03/11 01:09:23;;;;;;;5.38;1.35;;;;;;;;;;4990188;28;89782;-70
2023/03/11 01:11:50;;;;;;;7.85;1.05;;;;;;;;;;4998432;28;89053;-70
2023/03/11 01:14:17;;;;;;;4.75;1.42;;;;;;;;;;4995695;28;88590;-70
2023/03/11 01:16:43;;;;;;;10.05;1.25;;;;;;;;;;4996956;28;89291;-70
2023/03/11 01:19:09;;;;;;;9.30;1.30;;;;;;;;;;4993752;28;89010;-70
2023/03/11 01:21:35;;;;;;;11.55;1.70;;;;;;;;;;4996061;28;88540;-70
2023/03/11 01:24:02;;;;;;;7.63;1.40;;;;;;;;;;4996353;28;90135;-70
2023/03/11 01:26:28;;;;;;;3.30;1.40;;;;;;;;;;4985601;28;87254;-69
2023/03/11 01:28:55;;;;;;;2.08;1.00;;;;;;;;;;4994219;28;89301;-70
2023/03/11 01:31:21;;;;;;;8.93;1.90;;;;;;;;;;4984556;28;88911;-70
2023/03/11 01:33:47;;;;;;;6.80;1.23;;;;;;;;;;4997737;28;89328;-70
2023/03/11 01:36:14;;;;;;;5.20;1.13;;;;;;;;;;4994140;28;88697;-70
2023/03/11 01:38:40;;;;;;;5.55;0.95;;;;;;;;;;4992396;28;88099;-70
2023/03/11 01:41:10;;;;;;;4.95;1.35;;;;;;;;;;4994586;28;89286;-70
2023/03/11 01:43:38;;;;;;;6.38;1.38;;;;;;;;;;4982320;28;89529;-71
2023/03/11 01:46:10;;;;;;;3.08;1.20;;;;;;;;;;4990585;28;88602;-70
2023/03/11 01:48:37;;;;;;;12.25;1.45;;;;;;;;;;4991834;28;88757;-70
2023/03/11 01:51:05;;;;;;;6.90;1.27;;;;;;;;;;4992423;28;88323;-70
2023/03/11 01:53:31;;;;;;;5.75;1.13;;;;;;;;;;4995231;28;90373;-70
2023/03/11 01:55:58;;;;;;;8.20;1.75;;;;;;;;;;4995828;28;88759;-70
2023/03/11 01:58:26;;;;;;;11.40;1.48;;;;;;;;;;4992933;28;89771;-70
2023/03/11 02:00:54;;;;;;;6.47;1.35;;;;;;;;;;4986747;28;89498;-70
2023/03/11 02:03:24;;;;;;;3.90;1.15;;;;;;;;;;4977236;28;89339;-69
2023/03/11 02:05:51;;;;;;;;;;;;;;;;;;4981861;28;88206;-67
2023/03/11 02:08:17;;;;;;;4.75;1.42;;;;;;;;;;4995361;28;119101;-69
2023/03/11 02:10:44;;;;;;;11.40;1.90;;;;;;;;;;4985976;28;89188;-69
2023/03/11 02:13:11;;;;;;;5.47;1.75;;;;;;;;;;4992389;28;88298;-69
2023/03/11 02:15:37;;;;;;;13.43;2.17;;;;;;;;;;4994856;28;89659;-70
2023/03/11 02:18:05;;;;;;;8.85;1.40;;;;;;;;;;4997237;28;91098;-69
2023/03/11 02:20:50;;;;;;;5.68;1.70;;;;;;;;;;4998298;28;88812;-70
2023/03/11 02:23:18;;;;;;;7.88;1.00;;;;;;;;;;4991076;28;90737;-69
2023/03/11 02:25:49;;;;;;;13.20;2.03;;;;;;;;;;4997665;28;88154;-70
2023/03/11 02:28:17;;;;;;;7.85;1.40;;;;;;;;;;4995434;28;88792;-69
2023/03/11 02:30:43;;;;;;;9.63;3.13;;;;;;;;;;4994974;28;91847;-71
2023/03/11 02:33:10;;;;;;;2.85;1.10;;;;;;;;;;4982527;28;88382;-69
2023/03/11 02:35:37;;;;;;;11.18;1.30;;;;;;;;;;4988695;28;88240;-70
2023/03/11 02:38:03;;;;;;;15.20;1.55;;;;;;;;;;4995779;28;91503;-70
2023/03/11 02:40:34;;;;;;;7.90;1.27;;;;;;;;;;4993054;28;88011;-69
2023/03/11 02:43:02;;;;;;;17.92;1.30;;;;;;;;;;4990192;28;88685;-69
2023/03/11 02:45:30;;;;;;;7.22;1.48;;;;;;;;;;4992852;28;88081;-69
2023/03/11 02:47:58;;;;;;;11.80;1.75;;;;;;;;;;4985650;28;89116;-69
2023/03/11 02:50:25;;;;;;;8.75;1.33;;;;;;;;;;4987208;28;88872;-69
2023/03/11 02:52:52;;;;;;;5.85;1.08;;;;;;;;;;4992170;28;88999;-69
2023/03/11 02:55:19;;;;;;;12.70;1.10;;;;;;;;;;4995723;28;88542;-70
2023/03/11 02:57:46;;;;;;;7.82;0.98;;;;;;;;;;4994752;28;89164;-69
2023/03/11 03:00:14;;;;;;;11.35;1.33;;;;;;;;;;4995295;28;88006;-69
2023/03/11 03:02:41;;;;;;;3.63;1.40;;;;;;;;;;4991212;28;89491;-69
2023/03/11 03:05:09;;;;;;;7.40;1.92;;;;;;;;;;4997043;28;87810;-70
2023/03/11 03:07:35;;;;;;;5.43;1.17;;;;;;;;;;4995024;28;89379;-69
2023/03/11 03:10:02;;;;;;;8.73;1.80;;;;;;;;;;4995635;28;89056;-69
2023/03/11 03:12:29;;;;;;;5.80;1.63;;;;;;;;;;4994546;28;89071;-70
2023/03/11 03:14:56;;;;;;;5.53;1.30;;;;;;;;;;4990384;28;89591;-69
2023/03/11 03:17:23;;;;;;;5.25;1.45;;;;;;;;;;4991835;28;89072;-69
2023/03/11 03:19:50;;;;;;;3.85;1.02;;;;;;;;;;4994152;28;88122;-70
2023/03/11 03:22:16;;;;;;;2.45;1.00;;;;;;;;;;4992234;28;88695;-70
2023/03/11 03:24:42;;;;;;;3.60;0.90;;;;;;;;;;4997263;28;89542;-69
2023/03/11 03:27:09;;;;;;;4.53;0.85;;;;;;;;;;4995460;28;89786;-69
2023/03/11 03:29:35;;;;;;;5.75;1.10;;;;;;;;;;4992665;28;89468;-69
2023/03/11 03:32:01;;;;;;;7.07;1.35;;;;;;;;;;4981091;28;88109;-70
2023/03/11 03:34:28;;;;;;;2.38;1.00;;;;;;;;;;4989835;28;88986;-69
2023/03/11 03:36:54;;;;;;;1.40;0.90;;;;;;;;;;4983403;28;89895;-69
2023/03/11 03:39:20;;;;;;;9.52;1.70;;;;;;;;;;4986228;28;88943;-69
2023/03/11 03:41:47;;;;;;;7.43;1.58;;;;;;;;;;4986240;28;88709;-69
2023/03/11 03:44:13;;;;;;;10.80;1.30;;;;;;;;;;4998982;28;88844;-69
2023/03/11 03:46:39;;;;;;;10.35;1.45;;;;;;;;;;4995636;28;88569;-70
2023/03/11 03:49:06;;;;;;;4.28;1.15;;;;;;;;;;4985155;28;89096;-69
2023/03/11 03:51:33;;;;;;;10.77;1.27;;;;;;;;;;4993433;28;88062;-70
2023/03/11 03:53:59;;;;;;;10.52;1.20;;;;;;;;;;4986289;28;88802;-70
2023/03/11 03:56:26;;;;;;;7.13;1.60;;;;;;;;;;4991861;28;89018;-70
2023/03/11 03:58:52;;;;;;;5.28;1.40;;;;;;;;;;4988151;28;88970;-70
2023/03/11 04:01:19;;;;;;;9.82;1.50;;;;;;;;;;4985836;28;89532;-69
2023/03/11 04:03:45;;;;;;;3.58;1.13;;;;;;;;;;4995367;28;89276;-70
2023/03/11 04:06:17;;;;;;;3.75;1.20;;;;;;;;;;4998854;28;88659;-71
2023/03/11 04:08:43;;;;;;;1.13;1.05;;;;;;;;;;4990731;28;89355;-70
2023/03/11 04:11:10;;;;;;;5.80;1.30;;;;;;;;;;4979893;28;87973;-70
2023/03/11 04:13:36;;;;;;;7.32;1.25;;;;;;;;;;4977755;28;90729;-71
2023/03/11 04:16:03;;;;;;;12.45;1.17;;;;;;;;;;4995728;28;89505;-70
2023/03/11 04:18:30;;;;;;;3.88;1.10;;;;;;;;;;4997656;28;88248;-70
2023/03/11 04:20:56;;;;;;;8.35;2.00;;;;;;;;;;4996342;28;88981;-71
2023/03/11 04:23:22;;;;;;;3.38;1.00;;;;;;;;;;4978353;28;89340;-71
2023/03/11 04:25:48;;;;;;;4.63;1.17;;;;;;;;;;4995614;28;89405;-69
2023/03/11 04:28:15;;;;;;;7.50;1.25;;;;;;;;;;4984643;28;89269;-70
2023/03/11 04:30:42;;;;;;;4.70;1.20;;;;;;;;;;4985541;28;88930;-70
2023/03/11 04:33:08;;;;;;;8.35;1.50;;;;;;;;;;4993034;28;88969;-71
2023/03/11 04:35:36;;;;;;;9.75;1.08;;;;;;;;;;4981794;28;89998;-73
2023/03/11 04:38:03;;;;;;;5.68;1.30;;;;;;;;;;4982393;28;88959;-70
2023/03/11 04:40:29;;;;;;;6.07;1.20;;;;;;;;;;4981558;28;89521;-70
2023/03/11 04:42:55;;;;;;;3.75;1.75;;;;;;;;;;4979896;28;89259;-70
2023/03/11 04:45:22;;;;;;;6.55;1.45;;;;;;;;;;4995202;28;89091;-69
2023/03/11 04:47:49;;;;;;;5.90;1.35;;;;;;;;;;4995468;28;90212;-70
2023/03/11 04:50:15;;;;;;;6.32;1.10;;;;;;;;;;4995795;28;88713;-70
2023/03/11 04:52:42;;;;;;;4.57;0.88;;;;;;;;;;4996825;28;89683;-70
2023/03/11 04:55:08;;;;;;;4.05;0.95;;;;;;;;;;4990954;28;89027;-70
2023/03/11 04:57:35;;;;;;;5.03;1.20;;;;;;;;;;4980676;28;88246;-70
2023/03/11 05:00:05;;;;;;;3.20;0.93;;;;;;;;;;4992394;28;88645;-70
2023/03/11 05:02:32;;;;;;;8.95;2.88;;;;;;;;;;4995601;28;90032;-70
2023/03/11 05:04:58;;;;;;;3.17;1.33;;;;;;;;;;4993742;28;88106;-70
2023/03/11 05:07:24;;;;;;;9.73;1.10;;;;;;;;;;4984476;28;88814;-69
2023/03/11 05:09:51;;;;;;;5.00;1.30;;;;;;;;;;4986742;28;90462;-71
2023/03/11 05:12:17;;;;;;;3.33;1.00;;;;;;;;;;4993239;28;88774;-68
2023/03/11 05:14:43;;;;;;;3.47;1.08;;;;;;;;;;4992132;28;90872;-69
2023/03/11 05:17:12;;;;;;;5.70;1.52;;;;;;;;;;4998024;28;88210;-69
2023/03/11 05:19:38;;;;;;;4.47;1.25;;;;;;;;;;4998500;28;88723;-69
2023/03/11 05:22:04;;;;;;;6.38;1.20;;;;;;;;;;4984426;28;89045;-70
2023/03/11 05:24:31;;;;;;;3.42;0.90;;;;;;;;;;4994665;28;88041;-70
2023/03/11 05:26:58;;;;;;;7.63;1.50;;;;;;;;;;4998746;28;88796;-70
2023/03/11 05:29:24;;;;;;;8.27;1.45;;;;;;;;;;5020986;28;87778;-70
2023/03/11 05:31:51;;;;;;;8.02;1.30;;;;;;;;;;5018446;28;87935;-70
2023/03/11 05:34:17;;;;;;;4.88;1.40;;;;;;;;;;5009112;28;87838;-71
2023/03/11 05:36:43;;;;;;;8.15;1.65;;;;;;;;;;5016403;28;88576;-70
2023/03/11 05:39:10;;;;;;;9.35;1.50;;;;;;;;;;5001580;28;87904;-70
2023/03/11 05:41:36;;;;;;;10.77;2.13;;;;;;;;;;5007390;28;88430;-71
2023/03/11 05:44:02;;;;;;;3.83;1.20;;;;;;;;;;5009378;28;88514;-70
2023/03/11 05:46:29;;;;;;;4.85;1.20;;;;;;;;;;5017013;28;88693;-70
2023/03/11 05:48:55;;;;;;;14.00;2.83;;;;;;;;;;5021950;28;88117;-71
2023/03/11 05:51:21;;;;;;;9.02;2.60;;;;;;;;;;5021192;28;87665;-71
2023/03/11 05:53:48;;;;;;;2.67;1.42;;;;;;;;;;5024637;28;88665;-72
2023/03/11 05:56:14;;;;;;;9.10;1.88;;;;;;;;;;5024865;28;86571;-71
2023/03/11 05:58:41;;;;;;;10.80;4.10;;;;;;;;;;5006360;28;87979;-70
2023/03/11 06:01:08;;;;;;;20.13;7.38;;;;;;;;;;4998811;28;88998;-71
2023/03/11 06:03:35;;;;;;;5.30;2.38;;;;;;;;;;4983916;28;88833;-70
2023/03/11 06:06:01;;;;;;;4.10;1.08;;;;;;;;;;4988945;28;89243;-70
2023/03/11 06:08:29;;;;;;;6.80;1.80;;;;;;;;;;4995804;28;89308;-71
2023/03/11 06:11:02;;;;;;;11.85;5.28;;;;;;;;;;4990687;28;88115;-71
2023/03/11 06:13:29;;;;;;;33.53;16.15;;;;;;;;;;4995650;28;89084;-71
2023/03/11 06:15:55;;;;;;;16.95;7.45;;;;;;;;;;4996746;28;90345;-70
2023/03/11 06:18:22;;;;;;;27.70;15.20;;;;;;;;;;4999486;28;88864;-70
2023/03/11 06:20:48;;;;;;;16.52;7.78;;;;;;;;;;4996661;28;89111;-70
2023/03/11 06:23:14;;;;;;;15.43;5.72;;;;;;;;;;4997526;28;90539;-70
2023/03/11 06:25:41;;;;;;;7.45;5.13;;;;;;;;;;4989581;28;88727;-71
2023/03/11 06:28:07;;;;;;;15.88;5.65;;;;;;;;;;4983156;28;89775;-70
2023/03/11 06:30:33;;;;;;;21.33;10.00;;;;;;;;;;4992853;28;89599;-71
2023/03/11 06:33:00;;;;;;;17.00;8.93;;;;;;;;;;4986911;28;89623;-70
2023/03/11 06:35:26;;;;;;;16.63;8.48;;;;;;;;;;4996536;28;88720;-70
2023/03/11 06:37:52;;;;;;;15.40;5.85;;;;;;;;;;4986000;28;88093;-70
2023/03/11 06:40:19;;;;;;;14.32;4.65;;;;;;;;;;4994489;28;89674;-70
2023/03/11 06:42:48;;;;;;;10.90;5.80;;;;;;;;;;4989719;28;88017;-71
2023/03/11 06:45:15;;;;;;;8.48;5.35;;;;;;;;;;4986477;28;88967;-70
2023/03/11 06:47:41;;;;;;;9.75;5.80;;;;;;;;;;4988483;28;89029;-70
2023/03/11 06:50:08;;;;;;;13.68;8.32;;;;;;;;;;4997357;28;88234;-69
2023/03/11 06:52:34;;;;;;;13.35;6.20;;;;;;;;;;4997787;28;88759;-70
2023/03/11 06:55:00;;;;;;;14.27;6.80;;;;;;;;;;4989787;28;91921;-69
2023/03/11 06:57:28;;;;;;;8.82;4.65;;;;;;;;;;4989583;28;88183;-71
2023/03/11 06:59:54;;;;;;;9.10;3.53;;;;;;;;;;4986709;28;89325;-70
2023/03/11 07:02:20;;;;;;;10.07;3.78;;;;;;;;;;4995746;28;88393;-69
2023/03/11 07:04:50;;;;;;;10.25;3.60;;;;;;;;;;4981954;28;87964;-70
2023/03/11 07:07:16;;;;;;;9.48;2.80;;;;;;;;;;4997585;28;90038;-70
2023/03/11 07:09:43;;;;;;;10.15;3.75;;;;;;;;;;4996296;28;89243;-67
2023/03/11 07:12:09;;;;;;;6.65;2.92;;;;;;;;;;4992574;28;88041;-67
2023/03/11 07:14:35;;;;;;;9.77;5.68;;;;;;;;;;4999472;28;88990;-68
2023/03/11 07:17:01;;;;;;;13.60;5.63;;;;;;;;;;4998553;28;88757;-68
2023/03/11 07:19:28;;;;;;;18.00;5.20;;;;;;;;;;4987968;28;89403;-67
2023/03/11 07:21:54;;;;;;;6.63;4.30;;;;;;;;;;4991502;28;88199;-68
2023/03/11 07:24:20;;;;;;;9.80;3.70;;;;;;;;;;4978373;28;88955;-69
2023/03/11 07:26:47;;;;;;;5.65;3.20;;;;;;;;;;4992711;28;88890;-69
2023/03/11 07:29:13;;;;;;;8.43;3.95;;;;;;;;;;4990066;28;88142;-68
2023/03/11 07:31:40;;;;;;;12.95;3.08;;;;;;;;;;4995354;28;88759;-68
2023/03/11 07:34:10;;;;;;;4.18;2.88;;;;;;;;;;4995443;28;88313;-68
2023/03/11 07:36:38;;;;;;;12.80;3.37;;;;;;;;;;4989158;28;88012;-69
2023/03/11 07:39:05;;;;;;;7.90;3.83;;;;;;;;;;4990161;28;89173;-69
2023/03/11 07:41:32;;;;;;;6.85;4.20;;;;;;;;;;4985674;28;89798;-69
2023/03/11 07:43:59;;;;;;;12.90;5.05;;;;;;;;;;4988035;28;89498;-69
2023/03/11 07:46:26;;;;;;;9.93;3.35;;;;;;;;;;4994569;28;88079;-69
2023/03/11 07:48:52;;;;;;;7.72;2.60;;;;;;;;;;4985235;28;90187;-68
2023/03/11 07:51:23;;;;;;;4.55;2.05;;;;;;;;;;5006847;28;88865;-68
2023/03/11 07:53:50;;;;;;;4.82;1.95;;;;;;;;;;4995819;28;89641;-68
2023/03/11 07:56:17;;;;;;;13.90;2.38;;;;;;;;;;4995636;28;89664;-69
2023/03/11 07:58:44;;;;;;;4.85;1.65;;;;;;;;;;4994961;28;89091;-69
2023/03/11 08:01:14;;;;;;;11.68;2.80;;;;;;;;;;4995424;28;88307;-69
2023/03/11 08:03:42;;;;;;;3.95;1.50;;;;;;;;;;4996298;28;88417;-68
2023/03/11 08:06:13;;;;;;;5.22;2.17;;;;;;;;;;4992192;28;89696;-68
2023/03/11 08:08:39;;;;;;;10.63;2.30;;;;;;;;;;4979058;28;88339;-68
2023/03/11 08:11:06;;;;;;;4.70;1.98;;;;;;;;;;4988574;28;88649;-68
2023/03/11 08:13:32;;;;;;;11.48;2.40;;;;;;;;;;4993647;28;89049;-68
2023/03/11 08:16:01;;;;;;;4.35;2.00;;;;;;;;;;4994396;28;88033;-68
2023/03/11 08:18:29;;;;;;;7.72;2.03;;;;;;;;;;4990629;28;88962;-69
2023/03/11 08:20:56;;;;;;;11.93;2.40;;;;;;;;;;4992621;28;88987;-85
2023/03/11 08:23:22;;;;;;;7.70;2.10;;;;;;;;;;4997663;28;88198;-68
2023/03/11 08:25:49;;;;;;;9.50;1.52;;;;;;;;;;4999380;28;88431;-69
2023/03/11 08:28:15;;;;;;;14.13;2.05;;;;;;;;;;4992099;28;88758;-74
2023/03/11 08:30:41;;;;;;;6.20;1.88;;;;;;;;;;4978899;28;89054;-67
2023/03/11 08:33:08;;;;;;;6.35;1.48;;;;;;;;;;4977949;28;88921;-68
2023/03/11 08:35:34;;;;;;;6.68;1.60;;;;;;;;;;4984557;28;89606;-67
2023/03/11 08:38:01;;;;;;;7.97;2.10;;;;;;;;;;4989951;28;88743;-67
2023/03/11 08:40:27;;;;;;;6.85;1.80;;;;;;;;;;4996498;28;91847;-68
2023/03/11 08:42:54;;;;;;;22.48;2.03;;;;;;;;;;4982191;28;89178;-68
2023/03/11 08:45:21;;;;;;;4.72;1.35;;;;;;;;;;4977676;28;88204;-67
2023/03/11 08:47:47;;;;;;;7.18;1.73;;;;;;;;;;4994923;28;87979;-67
2023/03/11 08:50:15;;;;;;;2.42;1.35;;;;;;;;;;4997765;28;89245;-67
2023/03/11 08:52:41;;;;;;;3.38;1.35;;;;;;;;;;4996733;28;89060;-67
2023/03/11 08:55:10;;;;;;;12.82;1.63;;;;;;;;;;4992972;28;88924;-66
2023/03/11 08:57:37;;;;;;;4.85;1.60;;;;;;;;;;4988824;28;90726;-68
2023/03/11 09:00:04;;;;;;;15.77;2.10;;;;;;;;;;4997382;28;90958;-67
2023/03/11 09:02:30;;;;;;;3.38;1.48;;;;;;;;;;4997348;28;88076;-68
2023/03/11 09:04:57;;;;;;;11.45;1.98;;;;;;;;;;4993229;28;89086;-68
2023/03/11 09:07:23;;;;;;;5.45;1.45;;;;;;;;;;4995604;28;90120;-69
2023/03/11 09:09:49;;;;;;;2.75;1.10;;;;;;;;;;4986611;28;88824;-68
2023/03/11 09:12:16;;;;;;;11.00;1.60;;;;;;;;;;4994737;28;88296;-68
2023/03/11 09:14:42;;;;;;;9.48;1.42;;;;;;;;;;4997491;28;88014;-68
2023/03/11 09:17:10;;;;;;;6.25;1.00;;;;;;;;;;4997007;28;88751;-68
2023/03/11 09:19:37;;;;;;;9.23;1.35;;;;;;;;;;4977017;28;89651;-67
2023/03/11 09:22:04;;;;;;;4.97;1.00;;;;;;;;;;4977008;28;88041;-68
2023/03/11 09:24:34;;;;;;;9.15;1.02;;;;;;;;;;4977392;28;89965;-68
2023/03/11 09:27:00;;;;;;;4.13;1.00;;;;;;;;;;4977434;28;89087;-68
2023/03/11 09:29:27;;;;;;;14.10;4.25;;;;;;;;;;4984961;28;88081;-68
2023/03/11 09:31:53;;;;;;;7.82;1.50;;;;;;;;;;4991155;28;89364;-67
2023/03/11 09:34:19;;;;;;;7.90;1.65;;;;;;;;;;4992320;28;88169;-68
2023/03/11 09:36:46;;;;;;;11.60;1.23;;;;;;;;;;4999228;28;89817;-70
2023/03/11 09:39:12;;;;;;;8.82;1.20;;;;;;;;;;4997489;28;90125;-68
2023/03/11 09:41:48;;;;;;;5.75;1.55;;;;;;;;;;4999944;28;88009;-67
2023/03/11 09:44:24;;;;;;;7.45;1.15;;;;;;;;;;4999286;28;90041;-68
2023/03/11 09:47:09;;;;;;;8.63;1.08;;;;;;;;;;4983352;28;89420;-67
2023/03/11 09:49:49;;;;;;;3.10;1.02;;;;;;;;;;4990528;28;88452;-68
2023/03/11 09:52:18;;;;;;;5.95;1.00;;;;;;;;;;4994924;28;89158;-68
2023/03/11 09:54:46;;;;;;;9.52;1.90;;;;;;;;;;4999232;28;89265;-68
2023/03/11 09:57:15;;;;;;;5.15;1.05;;;;;;;;;;4994516;28;89593;-68
2023/03/11 09:59:43;;;;;;;2.53;1.10;;;;;;;;;;4995939;28;93390;-68
2023/03/11 10:02:13;;;;;;;5.45;0.80;;;;;;;;;;4986094;28;91757;-68
2023/03/11 10:05:00;;;;;;;4.85;1.38;;;;;;;;;;5002410;28;93512;-68
2023/03/11 10:07:35;;;;;;;7.53;1.52;;;;;;;;;;4987815;28;94953;-68
2023/03/11 10:10:02;;;;;;;15.18;1.45;;;;;;;;;;4988920;28;94903;-68
2023/03/11 10:12:47;;;;;;;4.22;1.10;;;;;;;;;;4978035;28;96665;-68
2023/03/11 10:15:23;;;;;;;8.38;1.33;;;;;;;;;;4998183;28;94519;-67
2023/03/11 10:18:08;;;;;;;12.40;1.75;;;;;;;;;;4999050;28;93171;-67
2023/03/11 10:20:43;;;;;;;10.77;1.25;;;;;;;;;;4976457;28;93881;-67
2023/03/11 10:23:28;;;;;;;4.70;2.13;;;;;;;;;;4987387;28;92623;-67
2023/03/11 10:26:24;;;;;;;12.85;1.50;;;;;;;;;;4986668;28;94276;-67
2023/03/11 10:28:53;;;;;;;5.55;1.70;;;;;;;;;;4990789;28;93629;-68
2023/03/11 10:31:26;;;;;;;3.15;1.25;;;;;;;;;;4996904;28;92467;-67
2023/03/11 10:34:01;;;;;;;9.13;2.40;;;;;;;;;;4995317;28;92825;-67
2023/03/11 10:36:33;;;;;;;9.75;5.32;;;;;;;;;;4987861;28;96802;-67
2023/03/11 10:39:01;;;;;;;10.27;2.00;;;;;;;;;;4979561;28;92425;-67
2023/03/11 10:41:45;;;;;;;5.00;1.65;;;;;;;;;;4976073;28;93732;-67
2023/03/11 10:44:32;;;;;;;8.38;1.30;;;;;;;;;;4980481;28;92842;-67
2023/03/11 10:46:58;;;;;;;23.42;9.15;;;;;;;;;;4985071;28;93122;-67
2023/03/11 10:49:25;;;;;;;6.50;2.08;;;;;;;;;;4991128;28;94487;-67
2023/03/11 10:51:52;;;;;;;11.85;3.80;;;;;;;;;;4995695;28;92716;-67
2023/03/11 10:54:21;;;;;;;9.88;3.75;;;;;;;;;;4996535;28;94345;-67
2023/03/11 10:56:52;;;;;;;4.17;1.40;;;;;;;;;;4994957;28;93433;-67
2023/03/11 10:59:23;;;;;;;3.90;1.42;;;;;;;;;;4995084;28;92447;-67
2023/03/11 11:02:18;;;;;;;9.13;2.00;;;;;;;;;;4995931;28;94732;-68
2023/03/11 11:04:44;;;;;;;4.97;1.70;;;;;;;;;;4995383;28;92736;-67
2023/03/11 11:07:19;;;;;;;5.53;1.67;;;;;;;;;;4994318;28;93479;-68
2023/03/11 11:09:45;;;;;;;9.90;1.63;;;;;;;;;;4995981;28;93350;-67
2023/03/11 11:12:13;;;;;;;5.85;2.30;;;;;;;;;;4995094;28;92481;-67
2023/03/11 11:14:50;;;;;;;6.03;2.75;;;;;;;;;;4994405;28;93368;-67
2023/03/11 11:17:18;;;;;;;6.07;1.58;;;;;;;;;;4994983;28;93202;-68
2023/03/11 11:19:45;;;;;;;4.07;1.23;;;;;;;;;;4994532;28;92057;-68
2023/03/11 11:22:14;;;;;;;8.10;1.75;;;;;;;;;;4998120;28;92530;-67
2023/03/11 11:24:44;;;;;;;8.20;2.43;;;;;;;;;;4982816;28;92972;-67
2023/03/11 11:27:15;;;;;;;9.13;1.50;;;;;;;;;;4980723;28;94774;-67
2023/03/11 11:29:42;;;;;;;9.35;1.52;;;;;;;;;;4995568;28;94492;-67
2023/03/11 11:32:17;;;;;;;9.20;3.10;;;;;;;;;;4994711;28;92406;-68
2023/03/11 11:34:53;;;;;;;15.13;4.78;;;;;;;;;;4995236;28;94830;-68
2023/03/11 11:37:19;;;;;;;6.35;1.55;;;;;;;;;;4994871;28;94165;-67
2023/03/11 11:39:50;;;;;;;9.07;1.52;;;;;;;;;;4980189;28;92444;-68
2023/03/11 11:42:20;;;;;;;8.63;1.50;;;;;;;;;;4993872;28;93623;-67
2023/03/11 11:44:49;;;;;;;3.00;1.02;;;;;;;;;;4998624;28;92661;-68
2023/03/11 11:47:20;;;;;;;5.65;1.45;;;;;;;;;;4997131;28;92412;-67
2023/03/11 11:49:57;;;;;;;4.38;1.50;;;;;;;;;;4985601;28;93500;-68
2023/03/11 11:52:30;;;;;;;3.22;1.27;;;;;;;;;;4979575;28;94863;-68
2023/03/11 11:55:03;;;;;;;6.22;1.65;;;;;;;;;;4995079;28;95581;-68
2023/03/11 11:57:30;;;;;;;10.13;1.30;;;;;;;;;;4995163;28;93782;-68
2023/03/11 11:59:56;;;;;;;5.95;1.23;;;;;;;;;;4994589;28;92406;-68
2023/03/11 12:02:41;;;;;;;7.65;1.30;;;;;;;;;;4994640;28;92845;-69
2023/03/11 12:05:29;;;;;;;8.05;1.27;;;;;;;;;;4979053;28;94365;-68
2023/03/11 12:08:05;;;;;;;6.07;1.20;;;;;;;;;;4981937;28;92435;-68
2023/03/11 12:10:37;;;;;;;5.78;3.53;;;;;;;;;;4987975;28;92982;-68
2023/03/11 12:13:22;;;;;;;3.72;1.33;;;;;;;;;;4977548;28;92559;-68
2023/03/11 12:15:51;;;;;;;4.68;1.17;;;;;;;;;;4975022;28;93073;-68
2023/03/11 12:18:23;;;;;;;4.90;1.25;;;;;;;;;;4993169;28;95719;-68
2023/03/11 12:20:53;;;;;;;9.68;1.58;;;;;;;;;;4994890;28;92398;-68
2023/03/11 12:23:32;;;;;;;4.95;1.35;;;;;;;;;;4987237;28;93277;-68
2023/03/11 12:26:04;;;;;;;8.77;1.48;;;;;;;;;;4985789;28;93352;-67
2023/03/11 12:28:48;;;;;;;3.55;1.10;;;;;;;;;;4994121;28;92427;-81
2023/03/11 12:31:15;;;;;;;4.50;1.45;;;;;;;;;;4997632;28;94352;-81
2023/03/11 12:33:49;;;;;;;5.00;1.50;;;;;;;;;;4995351;28;92378;-81
2023/03/11 12:36:20;;;;;;;3.58;1.27;;;;;;;;;;4996405;28;97229;-81
2023/03/11 12:38:53;;;;;;;5.72;1.00;;;;;;;;;;4996923;28;93404;-82
2023/03/11 12:41:47;;;;;;;6.13;1.02;;;;;;;;;;4992507;28;92505;-68
2023/03/11 12:44:20;;;;;;;10.23;1.30;;;;;;;;;;4972935;28;96271;-68
2023/03/11 12:46:58;;;;;;;3.55;1.48;;;;;;;;;;4989078;28;93453;-81
2023/03/11 12:49:54;;;;;;;4.68;1.50;;;;;;;;;;4974154;28;92537;-90
2023/03/11 12:52:25;;;;;;;10.68;1.55;;;;;;;;;;4981883;28;94033;-87
2023/03/11 12:54:57;;;;;;;9.57;1.10;;;;;;;;;;4994696;28;93631;-81
2023/03/11 12:57:29;;;;;;;8.15;1.25;;;;;;;;;;4994113;28;94464;-82
2023/03/11 13:00:17;;;;;;;5.18;1.02;;;;;;;;;;4994882;28;94334;-81
2023/03/11 13:03:02;;;;;;;3.22;1.20;;;;;;;;;;4994397;28;91752;-81
2023/03/11 13:05:44;;;;;;;6.25;1.80;;;;;;;;;;4995032;28;93593;-84
2023/03/11 13:08:25;;;;;;;5.95;1.50;;;;;;;;;;4980431;28;94912;-91
2023/03/11 13:10:52;;;;;;;1.80;0.88;;;;;;;;;;4993278;28;94836;-83
2023/03/11 13:13:35;;;;;;;10.13;1.77;;;;;;;;;;4979234;28;96663;-76
2023/03/11 13:16:13;;;;;;;5.10;1.20;;;;;;;;;;4994570;28;96232;-75
2023/03/11 13:18:41;;;;;;;6.10;1.15;;;;;;;;;;4996814;28;92413;-76
2023/03/11 13:21:25;;;;;;;3.05;1.02;;;;;;;;;;4993229;28;93749;-77
2023/03/11 13:24:11;;;;;;;2.80;1.00;;;;;;;;;;4989085;28;92703;-77
2023/03/11 13:26:46;;;;;;;6.15;1.13;;;;;;;;;;4974139;28;94908;-72
2023/03/11 13:29:35;;;;;;;5.47;1.17;;;;;;;;;;4975398;28;93009;-79
2023/03/11 13:32:08;;;;;;;6.07;1.00;;;;;;;;;;4988647;28;93797;-80
2023/03/11 13:34:55;;;;;;;3.10;0.68;;;;;;;;;;4993905;28;92996;-81
2023/03/11 13:37:42;;;;;;;5.43;1.20;;;;;;;;;;4985166;28;96972;-83
2023/03/11 13:40:12;;;;;;;9.43;1.50;;;;;;;;;;4992682;28;92452;-90
2023/03/11 13:42:47;;;;;;;10.80;1.50;;;;;;;;;;4995766;28;94605;-90
2023/03/11 13:45:30;;;;;;;3.83;0.93;;;;;;;;;;4994201;28;92461;-84
2023/03/11 13:47:57;;;;;;;;;;;;;;;;;;4988689;28;94472;-87
2023/03/11 13:50:43;;;;;;;4.13;0.93;;;;;;;;;;4976087;28;123083;-87
2023/03/11 13:53:16;;;;;;;8.98;1.88;;;;;;;;;;4989938;28;92485;-85
2023/03/11 13:55:45;;;;;;;6.88;1.40;;;;;;;;;;4993858;28;94173;-88
2023/03/11 13:58:18;;;;;;;2.97;1.20;;;;;;;;;;4991017;28;94065;-72
2023/03/11 14:00:58;;;;;;;4.85;0.93;;;;;;;;;;4983506;28;92493;-68
2023/03/11 14:03:27;;;;;;;5.25;1.15;;;;;;;;;;4985914;28;96327;-67
2023/03/11 14:05:59;;;;;;;4.45;1.10;;;;;;;;;;4987895;28;94264;-67
2023/03/11 14:08:33;;;;;;;3.05;1.17;;;;;;;;;;4981532;28;93117;-67
2023/03/11 14:11:01;;;;;;;4.78;1.08;;;;;;;;;;4984373;28;92494;-75
2023/03/11 14:13:28;;;;;;;4.13;1.08;;;;;;;;;;4982217;28;92499;-76
2023/03/11 14:16:00;;;;;;;4.45;0.90;;;;;;;;;;4993213;28;94010;-76
2023/03/11 14:18:28;;;;;;;6.50;1.30;;;;;;;;;;4993965;28;94024;-75
2023/03/11 14:20:55;;;;;;;2.92;0.88;;;;;;;;;;4991835;28;91752;-75
2023/03/11 14:23:23;;;;;;;7.30;1.13;;;;;;;;;;4985900;28;94158;-75
2023/03/11 14:25:56;;;;;;;1.70;1.00;;;;;;;;;;4995715;28;93513;-75
2023/03/11 14:28:23;;;;;;;2.97;1.13;;;;;;;;;;4986820;28;95299;-75
2023/03/11 14:30:57;;;;;;;4.82;1.15;;;;;;;;;;4983726;28;92525;-74
2023/03/11 14:33:24;;;;;;;2.40;0.93;;;;;;;;;;4989959;28;92500;-75
2023/03/11 14:35:51;;;;;;;2.83;1.10;;;;;;;;;;4989181;28;94715;-74
2023/03/11 14:38:21;;;;;;;5.32;1.20;;;;;;;;;;4992206;28;93691;-75
2023/03/11 14:41:06;;;;;;;2.28;0.90;;;;;;;;;;4990654;28;92695;-75
2023/03/11 14:43:36;;;;;;;2.65;1.08;;;;;;;;;;4987994;28;94292;-74
2023/03/11 14:46:03;;;;;;;7.67;0.97;;;;;;;;;;4985700;28;92647;-75
2023/03/11 14:48:36;;;;;;;5.60;1.27;;;;;;;;;;4994639;28;93017;-75
2023/03/11 14:51:03;;;;;;;2.92;1.27;;;;;;;;;;4982704;28;94336;-76
2023/03/11 14:53:52;;;;;;;1.98;1.10;;;;;;;;;;4993812;28;96425;-77